sensor_id;sensor_type;location;lat;lon;timestamp;temperature;humidity
29775;DHT22;16676;51.202;6.774;2023-05-07T00:03:45;21.80;67.10
29775;DHT22;16676;51.202;6.774;2023-05-07T00:07:47;21.90;68.40
29775;DHT22;16676;51.202;6.774;2023-05-07T00:11:50;21.90;68.60
29775;DHT22;16676;51.202;6.774;2023-05-07T00:15:52;21.90;67.70
29775;DHT22;16676;51.202;6.774;2023-05-07T00:19:54;21.90;68.90
29775;DHT22;16676;51.202;6.774;2023-05-07T00:23:56;21.90;68.60
29775;DHT22;16676;51.202;6.774;2023-05-07T00:27:59;21.90;69.00
29775;DHT22;16676;51.202;6.774;2023-05-07T00:32:04;21.90;67.40
29775;DHT22;16676;51.202;6.774;2023-05-07T00:36:06;21.90;67.30
29775;DHT22;16676;51.202;6.774;2023-05-07T00:40:09;21.90;67.00
29775;DHT22;16676;51.202;6.774;2023-05-07T00:44:12;21.90;66.60
29775;DHT22;16676;51.202;6.774;2023-05-07T00:48:15;21.90;67.30
29775;DHT22;16676;51.202;6.774;2023-05-07T00:52:17;21.90;66.80
29775;DHT22;16676;51.202;6.774;2023-05-07T00:56:21;21.90;66.70
29775;DHT22;16676;51.202;6.774;2023-05-07T01:00:25;21.80;69.40
29775;DHT22;16676;51.202;6.774;2023-05-07T01:04:27;21.80;68.40
29775;DHT22;16676;51.202;6.774;2023-05-07T01:08:30;21.90;67.30
29775;DHT22;16676;51.202;6.774;2023-05-07T01:12:38;21.80;67.50
29775;DHT22;16676;51.202;6.774;2023-05-07T01:16:51;21.80;66.50
29775;DHT22;16676;51.202;6.774;2023-05-07T01:20:54;21.80;67.00
29775;DHT22;16676;51.202;6.774;2023-05-07T01:24:58;21.80;68.10
29775;DHT22;16676;51.202;6.774;2023-05-07T01:29:02;21.80;66.90
29775;DHT22;16676;51.202;6.774;2023-05-07T01:33:06;21.80;66.20
29775;DHT22;16676;51.202;6.774;2023-05-07T01:37:09;21.80;66.50
29775;DHT22;16676;51.202;6.774;2023-05-07T01:41:13;21.80;67.70
29775;DHT22;16676;51.202;6.774;2023-05-07T01:45:15;21.80;67.80
29775;DHT22;16676;51.202;6.774;2023-05-07T01:49:18;21.80;66.70
29775;DHT22;16676;51.202;6.774;2023-05-07T01:53:20;21.80;66.60
29775;DHT22;16676;51.202;6.774;2023-05-07T01:57:23;21.80;67.50
29775;DHT22;16676;51.202;6.774;2023-05-07T02:01:25;21.80;67.20
29775;DHT22;16676;51.202;6.774;2023-05-07T02:05:27;21.80;68.30
29775;DHT22;16676;51.202;6.774;2023-05-07T02:09:29;21.80;68.30
29775;DHT22;16676;51.202;6.774;2023-05-07T02:13:33;21.80;67.90
29775;DHT22;16676;51.202;6.774;2023-05-07T02:17:35;21.80;67.80
29775;DHT22;16676;51.202;6.774;2023-05-07T02:21:38;21.80;66.60
29775;DHT22;16676;51.202;6.774;2023-05-07T02:25:40;21.80;67.80
29775;DHT22;16676;51.202;6.774;2023-05-07T02:29:43;21.80;68.70
29775;DHT22;16676;51.202;6.774;2023-05-07T02:33:45;21.80;66.40
29775;DHT22;16676;51.202;6.774;2023-05-07T02:37:47;21.80;67.60
29775;DHT22;16676;51.202;6.774;2023-05-07T02:41:49;21.80;67.30
29775;DHT22;16676;51.202;6.774;2023-05-07T02:46:01;21.80;66.30
29775;DHT22;16676;51.202;6.774;2023-05-07T02:50:05;21.80;67.50
29775;DHT22;16676;51.202;6.774;2023-05-07T02:54:07;21.80;67.60
29775;DHT22;16676;51.202;6.774;2023-05-07T02:58:09;21.70;68.10
29775;DHT22;16676;51.202;6.774;2023-05-07T03:02:12;21.80;67.10
29775;DHT22;16676;51.202;6.774;2023-05-07T03:06:14;21.80;66.60
29775;DHT22;16676;51.202;6.774;2023-05-07T03:10:16;21.70;66.30
29775;DHT22;16676;51.202;6.774;2023-05-07T03:14:19;21.70;66.00
29775;DHT22;16676;51.202;6.774;2023-05-07T03:18:22;21.70;66.20
29775;DHT22;16676;51.202;6.774;2023-05-07T03:22:24;21.70;65.90
29775;DHT22;16676;51.202;6.774;2023-05-07T03:26:26;21.70;66.10
29775;DHT22;16676;51.202;6.774;2023-05-07T03:30:28;21.70;66.80
29775;DHT22;16676;51.202;6.774;2023-05-07T03:34:31;21.70;66.00
29775;DHT22;16676;51.202;6.774;2023-05-07T03:38:33;21.70;67.20
29775;DHT22;16676;51.202;6.774;2023-05-07T03:42:35;21.60;66.20
29775;DHT22;16676;51.202;6.774;2023-05-07T03:46:37;21.60;67.10
29775;DHT22;16676;51.202;6.774;2023-05-07T03:50:40;21.70;66.50
29775;DHT22;16676;51.202;6.774;2023-05-07T03:54:42;21.70;65.80
29775;DHT22;16676;51.202;6.774;2023-05-07T03:58:44;21.60;65.10
29775;DHT22;16676;51.202;6.774;2023-05-07T04:02:46;21.40;64.70
29775;DHT22;16676;51.202;6.774;2023-05-07T04:06:50;21.30;65.40
29775;DHT22;16676;51.202;6.774;2023-05-07T04:10:54;21.20;65.90
29775;DHT22;16676;51.202;6.774;2023-05-07T04:14:56;21.10;65.60
29775;DHT22;16676;51.202;6.774;2023-05-07T04:18:58;21.00;65.50
29775;DHT22;16676;51.202;6.774;2023-05-07T04:23:01;20.90;65.80
29775;DHT22;16676;51.202;6.774;2023-05-07T04:27:03;20.90;66.30
29775;DHT22;16676;51.202;6.774;2023-05-07T04:31:07;20.80;66.20
29775;DHT22;16676;51.202;6.774;2023-05-07T04:35:09;20.70;66.30
29775;DHT22;16676;51.202;6.774;2023-05-07T04:39:13;20.80;66.30
29775;DHT22;16676;51.202;6.774;2023-05-07T04:43:14;20.70;66.60
29775;DHT22;16676;51.202;6.774;2023-05-07T04:47:16;20.70;66.50
29775;DHT22;16676;51.202;6.774;2023-05-07T04:51:18;20.80;66.60
29775;DHT22;16676;51.202;6.774;2023-05-07T04:55:21;20.70;66.20
29775;DHT22;16676;51.202;6.774;2023-05-07T04:59:23;20.70;66.80
29775;DHT22;16676;51.202;6.774;2023-05-07T05:03:25;20.70;66.70
29775;DHT22;16676;51.202;6.774;2023-05-07T05:07:27;20.70;66.60
29775;DHT22;16676;51.202;6.774;2023-05-07T05:11:31;20.80;66.70
29775;DHT22;16676;51.202;6.774;2023-05-07T05:15:33;20.80;65.60
29775;DHT22;16676;51.202;6.774;2023-05-07T05:19:35;20.80;65.90
29775;DHT22;16676;51.202;6.774;2023-05-07T05:23:36;20.80;65.70
29775;DHT22;16676;51.202;6.774;2023-05-07T05:27:40;20.80;65.70
29775;DHT22;16676;51.202;6.774;2023-05-07T05:31:42;20.80;67.40
29775;DHT22;16676;51.202;6.774;2023-05-07T05:35:44;20.90;66.20
29775;DHT22;16676;51.202;6.774;2023-05-07T05:39:46;21.00;67.20
29775;DHT22;16676;51.202;6.774;2023-05-07T05:43:49;21.10;65.90
29775;DHT22;16676;51.202;6.774;2023-05-07T05:47:51;21.20;65.50
29775;DHT22;16676;51.202;6.774;2023-05-07T05:51:53;21.10;66.20
29775;DHT22;16676;51.202;6.774;2023-05-07T05:55:56;21.20;66.00
29775;DHT22;16676;51.202;6.774;2023-05-07T06:00:00;21.20;66.60
29775;DHT22;16676;51.202;6.774;2023-05-07T06:04:03;21.20;65.60
29775;DHT22;16676;51.202;6.774;2023-05-07T06:08:05;21.10;65.90
29775;DHT22;16676;51.202;6.774;2023-05-07T06:12:07;21.10;65.70
29775;DHT22;16676;51.202;6.774;2023-05-07T06:16:10;21.10;65.30
29775;DHT22;16676;51.202;6.774;2023-05-07T06:20:12;21.00;65.70
29775;DHT22;16676;51.202;6.774;2023-05-07T06:24:14;20.90;65.60
29775;DHT22;16676;51.202;6.774;2023-05-07T06:28:16;20.80;65.10
29775;DHT22;16676;51.202;6.774;2023-05-07T06:32:19;20.80;65.70
29775;DHT22;16676;51.202;6.774;2023-05-07T06:36:21;20.80;66.10
29775;DHT22;16676;51.202;6.774;2023-05-07T06:40:23;20.90;65.60
29775;DHT22;16676;51.202;6.774;2023-05-07T06:44:25;20.90;65.30
29775;DHT22;16676;51.202;6.774;2023-05-07T06:48:28;20.90;65.00
29775;DHT22;16676;51.202;6.774;2023-05-07T06:52:30;20.90;64.80
29775;DHT22;16676;51.202;6.774;2023-05-07T06:56:33;20.90;65.50
29775;DHT22;16676;51.202;6.774;2023-05-07T07:00:35;20.90;65.30
29775;DHT22;16676;51.202;6.774;2023-05-07T07:04:38;20.90;65.10
29775;DHT22;16676;51.202;6.774;2023-05-07T07:08:40;20.90;65.60
29775;DHT22;16676;51.202;6.774;2023-05-07T07:12:42;21.00;65.10
29775;DHT22;16676;51.202;6.774;2023-05-07T07:16:44;20.90;64.70
29775;DHT22;16676;51.202;6.774;2023-05-07T07:20:49;21.00;64.10
29775;DHT22;16676;51.202;6.774;2023-05-07T07:24:50;20.90;64.70
29775;DHT22;16676;51.202;6.774;2023-05-07T07:28:52;21.00;64.10
29775;DHT22;16676;51.202;6.774;2023-05-07T07:32:54;20.90;62.60
29775;DHT22;16676;51.202;6.774;2023-05-07T07:37:02;20.90;63.40
29775;DHT22;16676;51.202;6.774;2023-05-07T07:41:08;21.00;63.60
29775;DHT22;16676;51.202;6.774;2023-05-07T07:45:10;20.90;64.10
29775;DHT22;16676;51.202;6.774;2023-05-07T07:49:12;21.00;63.40
29775;DHT22;16676;51.202;6.774;2023-05-07T07:53:15;21.00;63.90
29775;DHT22;16676;51.202;6.774;2023-05-07T07:57:17;21.00;64.60
29775;DHT22;16676;51.202;6.774;2023-05-07T08:01:19;21.10;64.50
29775;DHT22;16676;51.202;6.774;2023-05-07T08:05:21;21.10;63.50
29775;DHT22;16676;51.202;6.774;2023-05-07T08:09:24;21.10;63.70
29775;DHT22;16676;51.202;6.774;2023-05-07T08:13:26;21.10;63.70
29775;DHT22;16676;51.202;6.774;2023-05-07T08:17:28;21.20;63.90
29775;DHT22;16676;51.202;6.774;2023-05-07T08:21:30;21.20;63.40
29775;DHT22;16676;51.202;6.774;2023-05-07T08:25:34;21.30;62.80
29775;DHT22;16676;51.202;6.774;2023-05-07T08:29:36;21.40;63.30
29775;DHT22;16676;51.202;6.774;2023-05-07T08:33:38;21.40;63.70
29775;DHT22;16676;51.202;6.774;2023-05-07T08:37:40;21.30;63.00
29775;DHT22;16676;51.202;6.774;2023-05-07T08:41:44;21.40;63.50
29775;DHT22;16676;51.202;6.774;2023-05-07T08:45:49;21.40;63.90
29775;DHT22;16676;51.202;6.774;2023-05-07T08:49:53;21.50;64.20
29775;DHT22;16676;51.202;6.774;2023-05-07T08:53:56;21.50;63.00
29775;DHT22;16676;51.202;6.774;2023-05-07T08:57:59;21.60;63.70
29775;DHT22;16676;51.202;6.774;2023-05-07T09:02:01;21.60;63.30
29775;DHT22;16676;51.202;6.774;2023-05-07T09:06:04;21.60;64.00
29775;DHT22;16676;51.202;6.774;2023-05-07T09:10:07;21.50;63.70
29775;DHT22;16676;51.202;6.774;2023-05-07T09:14:10;21.60;62.80
29775;DHT22;16676;51.202;6.774;2023-05-07T09:18:12;21.60;63.00
29775;DHT22;16676;51.202;6.774;2023-05-07T09:22:14;21.60;62.40
29775;DHT22;16676;51.202;6.774;2023-05-07T09:26:16;21.60;63.10
29775;DHT22;16676;51.202;6.774;2023-05-07T09:30:20;21.60;63.90
29775;DHT22;16676;51.202;6.774;2023-05-07T09:34:22;21.70;63.40
29775;DHT22;16676;51.202;6.774;2023-05-07T09:38:25;21.60;61.70
29775;DHT22;16676;51.202;6.774;2023-05-07T09:42:29;21.70;61.60
29775;DHT22;16676;51.202;6.774;2023-05-07T09:46:34;21.70;62.80
29775;DHT22;16676;51.202;6.774;2023-05-07T09:50:51;21.70;61.10
29775;DHT22;16676;51.202;6.774;2023-05-07T09:54:54;21.80;62.90
29775;DHT22;16676;51.202;6.774;2023-05-07T09:58:57;21.80;62.40
29775;DHT22;16676;51.202;6.774;2023-05-07T10:03:03;21.90;61.20
29775;DHT22;16676;51.202;6.774;2023-05-07T10:07:07;22.00;60.80
29775;DHT22;16676;51.202;6.774;2023-05-07T10:11:10;22.00;61.30
29775;DHT22;16676;51.202;6.774;2023-05-07T10:15:12;21.90;60.00
29775;DHT22;16676;51.202;6.774;2023-05-07T10:19:16;22.00;60.80
29775;DHT22;16676;51.202;6.774;2023-05-07T10:23:23;22.10;62.10
29775;DHT22;16676;51.202;6.774;2023-05-07T10:27:26;22.10;59.70
29775;DHT22;16676;51.202;6.774;2023-05-07T10:31:53;22.10;59.80
29775;DHT22;16676;51.202;6.774;2023-05-07T10:36:00;22.10;59.80
29775;DHT22;16676;51.202;6.774;2023-05-07T10:40:06;22.10;59.90
29775;DHT22;16676;51.202;6.774;2023-05-07T10:44:08;22.20;60.20
29775;DHT22;16676;51.202;6.774;2023-05-07T10:48:12;22.30;59.60
29775;DHT22;16676;51.202;6.774;2023-05-07T10:52:17;22.30;59.40
29775;DHT22;16676;51.202;6.774;2023-05-07T10:56:26;22.40;58.60
29775;DHT22;16676;51.202;6.774;2023-05-07T11:00:41;22.40;58.00
29775;DHT22;16676;51.202;6.774;2023-05-07T11:04:44;22.50;58.50
29775;DHT22;16676;51.202;6.774;2023-05-07T11:08:54;22.70;59.00
29775;DHT22;16676;51.202;6.774;2023-05-07T11:12:56;22.80;59.50
29775;DHT22;16676;51.202;6.774;2023-05-07T11:17:02;22.80;59.40
29775;DHT22;16676;51.202;6.774;2023-05-07T11:21:05;22.80;59.50
29775;DHT22;16676;51.202;6.774;2023-05-07T11:25:09;22.80;59.20
29775;DHT22;16676;51.202;6.774;2023-05-07T11:29:13;22.80;58.10
29775;DHT22;16676;51.202;6.774;2023-05-07T11:33:17;22.70;56.70
29775;DHT22;16676;51.202;6.774;2023-05-07T11:37:20;22.80;56.50
29775;DHT22;16676;51.202;6.774;2023-05-07T11:41:33;22.80;57.10
29775;DHT22;16676;51.202;6.774;2023-05-07T11:45:35;22.70;57.40
29775;DHT22;16676;51.202;6.774;2023-05-07T11:49:38;22.80;56.30
29775;DHT22;16676;51.202;6.774;2023-05-07T11:53:42;22.80;56.90
29775;DHT22;16676;51.202;6.774;2023-05-07T11:57:45;22.80;57.90
29775;DHT22;16676;51.202;6.774;2023-05-07T12:01:48;22.80;56.40
29775;DHT22;16676;51.202;6.774;2023-05-07T12:05:50;22.80;56.30
29775;DHT22;16676;51.202;6.774;2023-05-07T12:09:52;22.80;57.00
29775;DHT22;16676;51.202;6.774;2023-05-07T12:13:56;22.80;57.80
29775;DHT22;16676;51.202;6.774;2023-05-07T12:17:58;22.90;58.70
29775;DHT22;16676;51.202;6.774;2023-05-07T12:22:01;22.90;58.90
29775;DHT22;16676;51.202;6.774;2023-05-07T12:26:04;22.90;58.70
29775;DHT22;16676;51.202;6.774;2023-05-07T12:30:10;22.90;60.50
29775;DHT22;16676;51.202;6.774;2023-05-07T12:34:12;22.90;61.30
29775;DHT22;16676;51.202;6.774;2023-05-07T12:38:15;22.90;59.00
29775;DHT22;16676;51.202;6.774;2023-05-07T12:42:20;22.90;58.70
29775;DHT22;16676;51.202;6.774;2023-05-07T12:46:25;22.90;58.60
29775;DHT22;16676;51.202;6.774;2023-05-07T12:50:31;22.90;61.10
29775;DHT22;16676;51.202;6.774;2023-05-07T12:54:34;22.90;60.70
29775;DHT22;16676;51.202;6.774;2023-05-07T12:58:37;23.00;59.50
29775;DHT22;16676;51.202;6.774;2023-05-07T13:02:41;22.90;57.40
29775;DHT22;16676;51.202;6.774;2023-05-07T13:06:44;22.90;57.90
29775;DHT22;16676;51.202;6.774;2023-05-07T13:10:46;22.90;57.00
29775;DHT22;16676;51.202;6.774;2023-05-07T13:14:48;22.90;57.00
29775;DHT22;16676;51.202;6.774;2023-05-07T13:18:52;22.90;56.80
29775;DHT22;16676;51.202;6.774;2023-05-07T13:22:54;23.00;57.20
29775;DHT22;16676;51.202;6.774;2023-05-07T13:26:55;22.90;57.50
29775;DHT22;16676;51.202;6.774;2023-05-07T13:30:57;22.90;56.30
29775;DHT22;16676;51.202;6.774;2023-05-07T13:35:01;22.80;57.10
29775;DHT22;16676;51.202;6.774;2023-05-07T13:39:03;22.80;56.90
29775;DHT22;16676;51.202;6.774;2023-05-07T13:43:06;22.90;58.30
29775;DHT22;16676;51.202;6.774;2023-05-07T13:47:08;22.90;59.20
29775;DHT22;16676;51.202;6.774;2023-05-07T13:51:11;22.90;59.30
29775;DHT22;16676;51.202;6.774;2023-05-07T13:55:13;22.90;58.50
29775;DHT22;16676;51.202;6.774;2023-05-07T13:59:15;22.90;58.50
29775;DHT22;16676;51.202;6.774;2023-05-07T14:03:17;22.90;58.60
29775;DHT22;16676;51.202;6.774;2023-05-07T14:07:21;22.90;58.70
29775;DHT22;16676;51.202;6.774;2023-05-07T14:11:23;22.80;59.70
29775;DHT22;16676;51.202;6.774;2023-05-07T14:15:25;22.80;60.50
29775;DHT22;16676;51.202;6.774;2023-05-07T14:19:27;22.90;61.20
29775;DHT22;16676;51.202;6.774;2023-05-07T14:23:30;23.00;61.40
29775;DHT22;16676;51.202;6.774;2023-05-07T14:27:32;23.00;62.00
29775;DHT22;16676;51.202;6.774;2023-05-07T14:31:34;23.10;62.00
29775;DHT22;16676;51.202;6.774;2023-05-07T14:35:36;23.00;62.10
29775;DHT22;16676;51.202;6.774;2023-05-07T14:39:39;23.00;63.40
29775;DHT22;16676;51.202;6.774;2023-05-07T14:43:41;23.10;62.70
29775;DHT22;16676;51.202;6.774;2023-05-07T14:47:43;23.00;63.30
29775;DHT22;16676;51.202;6.774;2023-05-07T14:51:45;23.10;63.90
29775;DHT22;16676;51.202;6.774;2023-05-07T14:55:48;23.10;65.10
29775;DHT22;16676;51.202;6.774;2023-05-07T14:59:50;23.10;64.60
29775;DHT22;16676;51.202;6.774;2023-05-07T15:03:52;23.10;65.50
29775;DHT22;16676;51.202;6.774;2023-05-07T15:07:54;23.10;64.90
29775;DHT22;16676;51.202;6.774;2023-05-07T15:11:57;23.00;65.70
29775;DHT22;16676;51.202;6.774;2023-05-07T15:15:59;23.00;65.30
29775;DHT22;16676;51.202;6.774;2023-05-07T15:20:01;23.00;65.60
29775;DHT22;16676;51.202;6.774;2023-05-07T15:24:06;23.00;65.20
29775;DHT22;16676;51.202;6.774;2023-05-07T15:28:09;23.00;66.10
29775;DHT22;16676;51.202;6.774;2023-05-07T15:32:11;22.90;66.40
29775;DHT22;16676;51.202;6.774;2023-05-07T15:36:13;22.90;66.10
29775;DHT22;16676;51.202;6.774;2023-05-07T15:40:16;22.90;66.40
29775;DHT22;16676;51.202;6.774;2023-05-07T15:44:19;22.90;66.70
29775;DHT22;16676;51.202;6.774;2023-05-07T15:48:21;23.00;66.50
29775;DHT22;16676;51.202;6.774;2023-05-07T15:52:23;23.00;66.80
29775;DHT22;16676;51.202;6.774;2023-05-07T15:56:26;23.00;66.60
29775;DHT22;16676;51.202;6.774;2023-05-07T16:00:29;23.00;67.20
29775;DHT22;16676;51.202;6.774;2023-05-07T16:04:32;23.10;67.10
29775;DHT22;16676;51.202;6.774;2023-05-07T16:08:34;23.10;67.60
29775;DHT22;16676;51.202;6.774;2023-05-07T16:12:35;23.00;67.50
29775;DHT22;16676;51.202;6.774;2023-05-07T16:16:39;23.00;68.10
29775;DHT22;16676;51.202;6.774;2023-05-07T16:20:41;22.80;71.30
29775;DHT22;16676;51.202;6.774;2023-05-07T16:24:43;22.90;69.40
29775;DHT22;16676;51.202;6.774;2023-05-07T16:28:45;23.10;68.60
29775;DHT22;16676;51.202;6.774;2023-05-07T16:32:49;23.10;68.60
29775;DHT22;16676;51.202;6.774;2023-05-07T16:36:51;23.10;68.30
29775;DHT22;16676;51.202;6.774;2023-05-07T16:40:53;23.00;68.30
29775;DHT22;16676;51.202;6.774;2023-05-07T16:44:54;23.10;67.70
29775;DHT22;16676;51.202;6.774;2023-05-07T16:48:58;23.10;68.40
29775;DHT22;16676;51.202;6.774;2023-05-07T16:52:59;23.10;68.80
29775;DHT22;16676;51.202;6.774;2023-05-07T16:57:01;23.10;68.10
29775;DHT22;16676;51.202;6.774;2023-05-07T17:01:03;23.10;69.00
29775;DHT22;16676;51.202;6.774;2023-05-07T17:05:08;23.10;68.80
29775;DHT22;16676;51.202;6.774;2023-05-07T17:09:10;23.10;69.50
29775;DHT22;16676;51.202;6.774;2023-05-07T17:13:12;23.00;68.90
29775;DHT22;16676;51.202;6.774;2023-05-07T17:17:14;23.10;69.00
29775;DHT22;16676;51.202;6.774;2023-05-07T17:21:17;23.10;68.90
29775;DHT22;16676;51.202;6.774;2023-05-07T17:25:19;23.10;69.00
29775;DHT22;16676;51.202;6.774;2023-05-07T17:29:22;23.10;68.40
29775;DHT22;16676;51.202;6.774;2023-05-07T17:33:24;23.10;69.00
29775;DHT22;16676;51.202;6.774;2023-05-07T17:37:27;23.10;68.30
29775;DHT22;16676;51.202;6.774;2023-05-07T17:41:29;23.10;68.00
29775;DHT22;16676;51.202;6.774;2023-05-07T17:45:31;23.00;68.20
29775;DHT22;16676;51.202;6.774;2023-05-07T17:49:33;23.00;67.90
29775;DHT22;16676;51.202;6.774;2023-05-07T17:53:38;23.00;68.00
29775;DHT22;16676;51.202;6.774;2023-05-07T17:57:40;23.00;67.50
29775;DHT22;16676;51.202;6.774;2023-05-07T18:01:41;23.00;67.20
29775;DHT22;16676;51.202;6.774;2023-05-07T18:05:43;23.00;67.50
29775;DHT22;16676;51.202;6.774;2023-05-07T18:09:47;23.00;67.40
29775;DHT22;16676;51.202;6.774;2023-05-07T18:13:49;23.10;68.50
29775;DHT22;16676;51.202;6.774;2023-05-07T18:17:51;23.00;68.90
29775;DHT22;16676;51.202;6.774;2023-05-07T18:21:53;23.00;68.90
29775;DHT22;16676;51.202;6.774;2023-05-07T18:25:58;23.00;68.60
29775;DHT22;16676;51.202;6.774;2023-05-07T18:30:00;22.90;67.90
29775;DHT22;16676;51.202;6.774;2023-05-07T18:34:02;22.90;68.00
29775;DHT22;16676;51.202;6.774;2023-05-07T18:38:05;22.80;67.80
29775;DHT22;16676;51.202;6.774;2023-05-07T18:42:09;22.80;68.70
29775;DHT22;16676;51.202;6.774;2023-05-07T18:46:10;22.80;69.70
29775;DHT22;16676;51.202;6.774;2023-05-07T18:50:13;22.70;69.90
29775;DHT22;16676;51.202;6.774;2023-05-07T18:54:16;22.70;69.80
29775;DHT22;16676;51.202;6.774;2023-05-07T18:58:19;22.80;70.30
29775;DHT22;16676;51.202;6.774;2023-05-07T19:02:21;22.70;70.20
29775;DHT22;16676;51.202;6.774;2023-05-07T19:06:24;22.80;69.90
29775;DHT22;16676;51.202;6.774;2023-05-07T19:10:26;22.70;69.70
29775;DHT22;16676;51.202;6.774;2023-05-07T19:14:29;22.70;69.50
29775;DHT22;16676;51.202;6.774;2023-05-07T19:18:31;22.60;69.60
29775;DHT22;16676;51.202;6.774;2023-05-07T19:22:33;22.70;69.70
29775;DHT22;16676;51.202;6.774;2023-05-07T19:26:35;22.60;69.40
29775;DHT22;16676;51.202;6.774;2023-05-07T19:30:38;22.60;69.40
29775;DHT22;16676;51.202;6.774;2023-05-07T19:34:40;22.70;69.10
29775;DHT22;16676;51.202;6.774;2023-05-07T19:38:42;22.70;69.40
29775;DHT22;16676;51.202;6.774;2023-05-07T19:42:44;22.70;69.10
29775;DHT22;16676;51.202;6.774;2023-05-07T19:46:48;22.70;69.40
29775;DHT22;16676;51.202;6.774;2023-05-07T19:50:50;22.80;70.10
29775;DHT22;16676;51.202;6.774;2023-05-07T19:54:52;22.90;70.60
29775;DHT22;16676;51.202;6.774;2023-05-07T19:58:54;22.90;70.80
29775;DHT22;16676;51.202;6.774;2023-05-07T20:02:58;22.90;70.40
29775;DHT22;16676;51.202;6.774;2023-05-07T20:07:00;22.90;70.50
29775;DHT22;16676;51.202;6.774;2023-05-07T20:11:02;23.00;69.90
29775;DHT22;16676;51.202;6.774;2023-05-07T20:15:05;23.00;69.50
29775;DHT22;16676;51.202;6.774;2023-05-07T20:19:08;23.00;70.10
29775;DHT22;16676;51.202;6.774;2023-05-07T20:23:10;23.00;69.90
29775;DHT22;16676;51.202;6.774;2023-05-07T20:27:12;23.00;69.50
29775;DHT22;16676;51.202;6.774;2023-05-07T20:31:14;23.00;70.00
29775;DHT22;16676;51.202;6.774;2023-05-07T20:35:18;23.00;69.90
29775;DHT22;16676;51.202;6.774;2023-05-07T20:39:20;23.00;69.30
29775;DHT22;16676;51.202;6.774;2023-05-07T20:43:21;23.00;69.80
29775;DHT22;16676;51.202;6.774;2023-05-07T20:47:23;23.00;69.80
29775;DHT22;16676;51.202;6.774;2023-05-07T20:51:27;23.00;69.40
29775;DHT22;16676;51.202;6.774;2023-05-07T20:55:29;23.00;70.70
29775;DHT22;16676;51.202;6.774;2023-05-07T20:59:31;23.00;70.30
29775;DHT22;16676;51.202;6.774;2023-05-07T21:03:34;23.00;70.00
29775;DHT22;16676;51.202;6.774;2023-05-07T21:07:37;23.00;70.10
29775;DHT22;16676;51.202;6.774;2023-05-07T21:11:39;22.90;70.30
29775;DHT22;16676;51.202;6.774;2023-05-07T21:15:41;23.00;70.20
29775;DHT22;16676;51.202;6.774;2023-05-07T21:19:43;23.00;70.40
29775;DHT22;16676;51.202;6.774;2023-05-07T21:23:48;22.90;70.10
29775;DHT22;16676;51.202;6.774;2023-05-07T21:27:50;23.00;70.40
29775;DHT22;16676;51.202;6.774;2023-05-07T21:31:52;23.00;70.40
29775;DHT22;16676;51.202;6.774;2023-05-07T21:35:54;23.00;70.60
29775;DHT22;16676;51.202;6.774;2023-05-07T21:39:57;23.00;70.70
29775;DHT22;16676;51.202;6.774;2023-05-07T21:43:59;22.90;70.40
29775;DHT22;16676;51.202;6.774;2023-05-07T21:48:01;22.90;70.20
29775;DHT22;16676;51.202;6.774;2023-05-07T21:52:03;22.90;69.80
29775;DHT22;16676;51.202;6.774;2023-05-07T21:56:07;22.90;70.30
29775;DHT22;16676;51.202;6.774;2023-05-07T22:00:09;22.90;70.60
29775;DHT22;16676;51.202;6.774;2023-05-07T22:04:11;22.90;70.30
29775;DHT22;16676;51.202;6.774;2023-05-07T22:08:13;22.90;70.20
29775;DHT22;16676;51.202;6.774;2023-05-07T22:12:16;22.90;70.30
29775;DHT22;16676;51.202;6.774;2023-05-07T22:16:18;22.90;70.30
29775;DHT22;16676;51.202;6.774;2023-05-07T22:20:21;22.90;70.20
29775;DHT22;16676;51.202;6.774;2023-05-07T22:24:23;22.90;70.30
29775;DHT22;16676;51.202;6.774;2023-05-07T22:28:26;22.90;69.70
29775;DHT22;16676;51.202;6.774;2023-05-07T22:32:28;22.90;70.00
29775;DHT22;16676;51.202;6.774;2023-05-07T22:36:30;22.90;70.30
29775;DHT22;16676;51.202;6.774;2023-05-07T22:40:32;22.90;70.20
29775;DHT22;16676;51.202;6.774;2023-05-07T22:44:35;22.90;69.40
29775;DHT22;16676;51.202;6.774;2023-05-07T22:48:37;22.90;69.70
29775;DHT22;16676;51.202;6.774;2023-05-07T22:52:39;22.90;69.90
29775;DHT22;16676;51.202;6.774;2023-05-07T22:56:41;22.90;69.90
29775;DHT22;16676;51.202;6.774;2023-05-07T23:00:44;22.90;70.10
29775;DHT22;16676;51.202;6.774;2023-05-07T23:04:46;22.90;69.40
29775;DHT22;16676;51.202;6.774;2023-05-07T23:08:48;22.90;69.80
29775;DHT22;16676;51.202;6.774;2023-05-07T23:12:50;22.80;69.60
29775;DHT22;16676;51.202;6.774;2023-05-07T23:16:54;22.90;69.60
29775;DHT22;16676;51.202;6.774;2023-05-07T23:20:56;22.80;69.60
29775;DHT22;16676;51.202;6.774;2023-05-07T23:24:57;22.80;69.70
29775;DHT22;16676;51.202;6.774;2023-05-07T23:28:59;22.90;69.50
29775;DHT22;16676;51.202;6.774;2023-05-07T23:33:03;22.80;69.30
29775;DHT22;16676;51.202;6.774;2023-05-07T23:37:07;22.80;69.50
29775;DHT22;16676;51.202;6.774;2023-05-07T23:41:09;22.80;69.30
29775;DHT22;16676;51.202;6.774;2023-05-07T23:45:11;22.80;69.60
29775;DHT22;16676;51.202;6.774;2023-05-07T23:49:14;22.80;69.40
29775;DHT22;16676;51.202;6.774;2023-05-07T23:53:16;22.80;69.50
29775;DHT22;16676;51.202;6.774;2023-05-07T23:57:18;22.80;69.10
